This is the latest recevied weather packets stored in our database for station/object N1ADJ. If no packets are shown the sender has not sent any weather packets the latest 10 day(s).
| Time | Temp. | Humidity | Pressure | Rain* | Wind** | Luminosity | Snow |
|---|---|---|---|---|---|---|---|
| 1777438817 | 7.22° C | 74% | 1018.8 hPa | 0 mm | - | - | - |
| 1777438517 | 7.22° C | 73% | 1019.1 hPa | 0 mm | - | - | - |
| 1777434318 | 6.67° C | 73% | 1019.7 hPa | 0 mm | - | - | - |
| 1777433118 | 6.67° C | 74% | 1019.8 hPa | 0 mm | - | - | - |
| 1777431317 | 6.11° C | 74% | 1020.4 hPa | 0 mm | - | - | - |
| 1777430737 | 5.56° C | 72% | 1020.7 hPa | 0 mm | - | - | - |
| 1777429818 | 5.56° C | 71% | 1020.6 hPa | 0 mm | - | - | - |
| 1777429218 | 5.56° C | 73% | 1020.7 hPa | 0 mm | - | - | - |
| 1777428317 | 5.56° C | 70% | 1020.7 hPa | 0 mm | - | - | - |
| 1777425617 | 6.67° C | 64% | 1021.1 hPa | 0 mm | - | - | - |
| 1777422637 | 8.33° C | 57% | 1021.1 hPa | 0 mm | - | - | - |
| 1777420517 | 10° C | 56% | 1020.8 hPa | 0 mm | - | - | - |
| 1777418117 | 11.67° C | 50% | 1021.2 hPa | 0 mm | - | - | - |
| 1777416917 | 12.22° C | 49% | 1021.8 hPa | 0 mm | - | - | - |
| 1777416017 | 12.78° C | 46% | 1021.6 hPa | 0 mm | - | - | - |
| 1777414817 | 13.33° C | 39% | 1021.7 hPa | 0 mm | - | - | - |
| 1777413617 | 13.89° C | 26% | 1021.9 hPa | 0 mm | - | - | - |
| 1777408217 | 17.78° C | 18% | 1021.8 hPa | 0 mm | - | - | - |
| 1777407617 | 17.78° C | 22% | 1021.8 hPa | 0 mm | - | - | - |
| 1777407017 | 17.78° C | 20% | 1021.9 hPa | 0 mm | - | - | - |
| 1777406417 | 18.33° C | 24% | 1022.1 hPa | 0 mm | - | - | - |
| 1777401617 | 17.78° C | 33% | 1022.2 hPa | 0 mm | - | - | - |
| 1777401017 | 18.33° C | 34% | 1022.4 hPa | 0 mm | - | - | - |
| 1777393538 | 12.22° C | 72% | 1023.3 hPa | 0 mm | - | - | - |
| 1777391116 | 11.67° C | 77% | 1023.4 hPa | 0 mm | - | - | - |
* Rain latest hour (hover to see other rain measurements)
** Current wind speed in m/s (hover to see current wind gust speed)